Time;durP1;ratioP1;P1;durP2;ratioP2;P2;SDS_P1;SDS_P2;PMS_P1;PMS_P2;Temp;Humidity;BMP_temperature;BMP_pressure;BME280_temperature;BME280_humidity;BME280_pressure;Samples;Min_cycle;Max_cycle;Signal;HPM_P1;HPM_P2
2022/05/11 00:01:33;;;;;;;17.95;2.60;;;12.10;94.60;;;;;;4997073;28;20053;-90
2022/05/11 00:04:00;;;;;;;5.28;1.45;;;12.10;94.70;;;;;;4997808;28;20042;-91
2022/05/11 00:06:27;;;;;;;12.38;1.70;;;12.10;94.90;;;;;;4997612;28;20014;-90
2022/05/11 00:08:54;;;;;;;18.67;2.10;;;12.00;95.10;;;;;;5015005;28;20030;-90
2022/05/11 00:11:21;;;;;;;10.60;1.42;;;12.00;95.30;;;;;;4997311;28;20085;-90
2022/05/11 00:13:47;;;;;;;9.30;1.27;;;12.00;95.60;;;;;;5015313;28;20022;-91
2022/05/11 00:16:13;;;;;;;20.83;2.28;;;12.00;95.60;;;;;;4997569;28;20021;-91
2022/05/11 00:18:39;;;;;;;6.07;1.40;;;12.00;95.70;;;;;;5019628;28;20106;-91
2022/05/11 00:21:06;;;;;;;13.30;1.88;;;12.00;95.70;;;;;;5014553;28;20030;-90
2022/05/11 00:23:32;;;;;;;15.35;2.30;;;12.00;95.90;;;;;;5015587;28;20026;-91
2022/05/11 00:25:58;;;;;;;11.95;1.70;;;12.00;96.10;;;;;;4998257;28;20072;-90
2022/05/11 00:28:24;;;;;;;16.65;2.28;;;12.00;96.30;;;;;;4997426;28;20033;-90
2022/05/11 00:30:49;;;;;;;9.65;2.03;;;11.90;96.50;;;;;;4997442;28;20033;-90
2022/05/11 00:33:16;;;;;;;12.13;2.00;;;11.90;96.70;;;;;;4997531;28;20040;-90
2022/05/11 00:35:43;;;;;;;9.85;1.63;;;11.90;97.00;;;;;;4998079;28;20018;-90
2022/05/11 00:38:10;;;;;;;8.45;2.15;;;11.90;97.20;;;;;;4992854;28;20084;-89
2022/05/11 00:40:46;;;;;;;8.02;1.73;;;11.90;97.50;;;;;;4998046;28;20479;-90
2022/05/11 00:43:11;;;;;;;7.95;1.27;;;11.90;97.70;;;;;;4998436;28;20034;-90
2022/05/11 00:45:45;;;;;;;11.52;1.70;;;11.90;98.00;;;;;;5008424;28;20072;-90
2022/05/11 00:50:59;;;;;;;10.75;1.83;;;11.80;98.80;;;;;;4984673;28;20499;-90
2022/05/11 00:53:25;;;;;;;18.77;3.42;;;11.80;98.70;;;;;;4985158;28;20046;-89
2022/05/11 00:56:00;;;;;;;8.73;1.83;;;11.80;98.90;;;;;;4982909;28;20487;-89
2022/05/11 00:58:48;;;;;;;11.45;2.90;;;11.80;99.10;;;;;;4982782;28;20026;-90
2022/05/11 01:01:15;;;;;;;9.95;2.10;;;11.80;99.40;;;;;;4982974;28;20028;-90
2022/05/11 01:03:55;;;;;;;8.02;1.30;;;11.80;99.60;;;;;;4979597;28;20046;-90
2022/05/11 01:06:22;;;;;;;11.07;2.50;;;11.70;99.80;;;;;;4978594;28;20031;-89
2022/05/11 01:08:48;;;;;;;10.45;2.33;;;11.70;99.90;;;;;;4985795;28;20027;-90
2022/05/11 01:11:14;;;;;;;8.23;1.42;;;11.70;99.90;;;;;;4984202;28;20028;-90
2022/05/11 01:13:42;;;;;;;5.45;1.13;;;11.70;99.90;;;;;;4980831;28;20026;-91
2022/05/11 01:16:08;;;;;;;8.55;1.48;;;11.60;99.90;;;;;;4985109;28;20436;-89
2022/05/11 01:18:37;;;;;;;12.82;1.80;;;11.60;99.90;;;;;;4982316;28;20652;-90
2022/05/11 01:21:04;;;;;;;7.20;1.58;;;11.60;99.90;;;;;;4982129;28;20033;-92
2022/05/11 01:23:33;;;;;;;4.40;1.02;;;11.60;99.90;;;;;;4986787;28;20038;-91
2022/05/11 01:26:00;;;;;;;8.18;1.02;;;11.60;99.90;;;;;;4983946;28;20101;-90
2022/05/11 01:28:26;;;;;;;7.63;1.73;;;11.60;99.90;;;;;;4987577;28;20034;-90
2022/05/11 01:31:02;;;;;;;11.52;1.60;;;11.50;99.90;;;;;;4984961;28;20019;-91
2022/05/11 01:33:28;;;;;;;8.90;1.17;;;11.50;99.90;;;;;;4990573;28;20026;-90
2022/05/11 01:36:11;;;;;;;8.18;1.38;;;11.50;99.90;;;;;;4993056;28;20018;-92
2022/05/11 01:38:42;;;;;;;7.95;1.65;;;11.50;99.90;;;;;;4975106;28;20069;-91
2022/05/11 01:41:12;;;;;;;12.85;1.52;;;11.50;99.90;;;;;;4986607;28;20015;-92
2022/05/11 01:43:39;;;;;;;2.45;1.02;;;11.50;99.90;;;;;;4983062;28;20034;-90
2022/05/11 01:46:15;;;;;;;12.93;1.50;;;11.50;99.90;;;;;;4983649;28;20031;-91
2022/05/11 01:48:42;;;;;;;9.23;1.88;;;11.50;99.90;;;;;;4984598;28;20077;-89
2022/05/11 01:51:13;;;;;;;6.50;0.90;;;11.50;99.90;;;;;;4985565;28;20022;-90
2022/05/11 01:53:46;;;;;;;7.50;1.55;;;11.50;99.90;;;;;;4983678;28;20118;-90
2022/05/11 01:56:20;;;;;;;9.35;1.63;;;11.50;99.90;;;;;;4983317;28;20014;-90
2022/05/11 01:58:50;;;;;;;11.02;1.83;;;11.50;99.90;;;;;;4982064;28;20058;-90
2022/05/11 02:01:19;;;;;;;8.25;1.77;;;11.50;99.90;;;;;;4985088;28;20022;-90
2022/05/11 02:03:46;;;;;;;7.63;1.67;;;11.50;99.90;;;;;;4982851;28;20030;-92
2022/05/11 02:08:56;;;;;;;9.55;1.27;;;11.50;99.90;;;;;;4981668;28;20049;-91
2022/05/11 02:11:22;;;;;;;9.40;1.40;;;11.50;99.90;;;;;;4983793;28;20023;-91
2022/05/11 02:13:48;;;;;;;10.85;2.15;;;11.50;99.90;;;;;;4983238;28;20376;-92
2022/05/11 02:16:14;;;;;;;7.93;2.10;;;11.50;99.90;;;;;;4982107;28;20026;-91
2022/05/11 02:18:41;;;;;;;11.30;1.55;;;11.50;99.90;;;;;;4984341;28;20030;-91
2022/05/11 02:21:07;;;;;;;14.20;1.48;;;11.50;99.90;;;;;;4983083;28;20053;-90
2022/05/11 02:23:34;;;;;;;7.53;1.20;;;11.50;99.90;;;;;;4985258;28;20125;-91
2022/05/11 02:25:59;;;;;;;7.03;1.77;;;11.50;99.90;;;;;;4986037;28;20053;-90
2022/05/11 02:28:25;;;;;;;12.70;2.08;;;11.50;99.90;;;;;;4988940;28;20144;-91
2022/05/11 02:30:53;;;;;;;7.20;1.50;;;11.50;99.90;;;;;;4984885;28;20023;-91
2022/05/11 02:33:19;;;;;;;9.48;1.67;;;11.50;99.90;;;;;;4992444;28;20031;-92
2022/05/11 02:35:46;;;;;;;8.75;1.55;;;11.50;99.90;;;;;;4995909;28;20019;-92
2022/05/11 02:38:16;;;;;;;9.95;2.20;;;11.40;99.90;;;;;;4996275;28;20041;-92
2022/05/11 02:40:46;;;;;;;11.80;1.83;;;11.40;99.90;;;;;;4989830;28;20042;-91
2022/05/11 02:43:12;;;;;;;13.15;1.80;;;11.40;99.90;;;;;;4989931;28;20293;-89
2022/05/11 02:46:11;;;;;;;13.95;1.95;;;11.40;99.90;;;;;;5001272;28;20105;-91
2022/05/11 02:52:10;;;;;;;10.65;1.50;;;11.40;99.90;;;;;;4926252;29;20032;-91
2022/05/11 02:54:53;;;;;;;13.43;1.85;;;11.40;99.90;;;;;;4923626;29;20037;-91
2022/05/11 02:57:18;;;;;;;14.30;1.90;;;11.40;99.90;;;;;;4887204;29;20032;-90
2022/05/11 02:59:44;;;;;;;17.90;1.60;;;11.40;99.90;;;;;;4892145;29;20073;-90
2022/05/11 03:02:10;;;;;;;10.25;1.45;;;11.40;99.90;;;;;;4892350;29;20077;-90
2022/05/11 03:04:37;;;;;;;8.90;1.80;;;11.40;99.90;;;;;;4893690;29;20540;-90
2022/05/11 03:07:03;;;;;;;6.85;1.65;;;11.40;99.90;;;;;;4908381;29;20550;-91
2022/05/11 03:09:35;;;;;;;10.18;1.25;;;11.40;99.90;;;;;;4899919;29;20096;-91
2022/05/11 03:12:01;;;;;;;9.80;1.65;;;11.40;99.90;;;;;;4910521;29;20119;-90
2022/05/11 03:14:27;;;;;;;9.68;1.67;;;11.40;99.90;;;;;;4904916;29;20051;-90
2022/05/11 03:16:53;;;;;;;14.20;1.60;;;11.30;99.90;;;;;;4913481;29;20025;-89
2022/05/11 03:19:18;;;;;;;6.55;1.17;;;11.40;99.90;;;;;;4906845;29;20082;-91
2022/05/11 03:21:44;;;;;;;10.40;1.60;;;11.30;99.90;;;;;;4910997;29;20055;-90
2022/05/11 03:24:10;;;;;;;9.95;1.70;;;11.30;99.90;;;;;;4905478;29;20033;-90
2022/05/11 03:26:36;;;;;;;11.30;1.85;;;11.30;99.90;;;;;;4957631;28;20058;-91
2022/05/11 03:29:07;;;;;;;12.27;1.80;;;11.30;99.90;;;;;;4977077;28;20106;-90
2022/05/11 03:31:33;;;;;;;;;;;11.30;99.90;;;;;;4970839;28;20203;-90
2022/05/11 03:36:47;;;;;;;11.27;1.55;;;11.30;99.90;;;;;;4976782;28;20029;-90
2022/05/11 03:39:16;;;;;;;14.93;3.28;;;11.30;99.90;;;;;;4974266;28;20027;-90
2022/05/11 03:41:46;;;;;;;15.55;1.80;;;11.30;99.90;;;;;;4976624;28;20081;-90
2022/05/11 03:44:16;;;;;;;9.83;1.70;;;11.20;99.90;;;;;;4977239;28;20125;-90
2022/05/11 03:46:42;;;;;;;9.52;1.75;;;11.20;99.90;;;;;;4977685;28;20043;-90
2022/05/11 03:49:09;;;;;;;10.30;2.00;;;11.20;99.90;;;;;;4985876;28;20085;-90
2022/05/11 03:51:35;;;;;;;11.57;1.60;;;11.10;99.90;;;;;;4991969;28;20021;-89
2022/05/11 03:54:01;;;;;;;13.48;1.95;;;11.10;99.90;;;;;;4994044;28;20046;-90
2022/05/11 03:56:26;;;;;;;13.15;1.85;;;11.10;99.90;;;;;;4997533;28;20026;-89
2022/05/11 03:58:53;;;;;;;13.20;1.92;;;11.10;99.90;;;;;;5009051;28;20026;-90
2022/05/11 04:01:19;;;;;;;10.98;1.85;;;11.00;99.90;;;;;;5007985;28;20022;-91
2022/05/11 04:03:46;;;;;;;12.05;1.73;;;11.00;99.90;;;;;;4975001;28;20046;-91
2022/05/11 04:06:11;;;;;;;12.43;1.70;;;11.00;99.90;;;;;;4990163;28;20022;-89
2022/05/11 04:08:37;;;;;;;12.40;1.85;;;11.00;99.90;;;;;;4985805;28;20139;-89
2022/05/11 04:11:03;;;;;;;14.82;2.53;;;11.00;99.90;;;;;;4970095;28;20030;-89
2022/05/11 04:13:28;;;;;;;11.10;2.25;;;11.00;99.90;;;;;;4985536;28;20145;-89
2022/05/11 04:15:55;;;;;;;13.93;2.08;;;10.90;99.90;;;;;;4986456;28;20333;-90
2022/05/11 04:18:20;;;;;;;13.80;2.13;;;11.00;99.90;;;;;;4983853;28;20424;-89
2022/05/11 04:20:48;;;;;;;12.63;2.13;;;11.00;99.90;;;;;;4987771;28;20022;-89
2022/05/11 04:23:13;;;;;;;10.85;1.67;;;11.00;99.90;;;;;;4992188;28;20045;-89
2022/05/11 04:25:39;;;;;;;11.65;1.90;;;11.00;99.90;;;;;;4991273;28;20129;-90
2022/05/11 04:28:11;;;;;;;13.95;2.33;;;10.90;99.90;;;;;;4982722;28;20030;-89
2022/05/11 04:30:37;;;;;;;11.20;2.08;;;10.90;99.90;;;;;;4987747;28;20034;-89
2022/05/11 04:33:03;;;;;;;15.88;2.05;;;10.90;99.90;;;;;;4971884;28;20082;-89
2022/05/11 04:35:32;;;;;;;11.90;2.13;;;10.90;99.90;;;;;;4971731;28;20018;-89
2022/05/11 04:37:59;;;;;;;11.02;1.67;;;10.90;99.90;;;;;;4971025;28;20022;-90
2022/05/11 04:40:26;;;;;;;10.50;2.13;;;10.90;99.90;;;;;;4957132;28;20031;-89
2022/05/11 04:42:52;;;;;;;13.38;2.38;;;10.90;99.90;;;;;;4972816;28;20034;-90
2022/05/11 04:45:18;;;;;;;9.93;1.88;;;10.90;99.90;;;;;;4967700;28;20436;-89
2022/05/11 04:47:44;;;;;;;10.05;1.70;;;10.90;99.90;;;;;;4986557;28;20066;-89
2022/05/11 04:50:11;;;;;;;13.75;2.28;;;10.90;99.90;;;;;;4967428;28;20077;-90
2022/05/11 04:52:40;;;;;;;12.70;2.65;;;10.80;99.90;;;;;;4968870;28;20027;-89
2022/05/11 04:55:09;;;;;;;17.80;2.38;;;10.80;99.90;;;;;;4984913;28;20094;-90
2022/05/11 04:57:36;;;;;;;12.00;1.77;;;10.80;99.90;;;;;;4969276;28;20499;-89
2022/05/11 05:00:12;;;;;;;9.55;1.80;;;10.80;99.90;;;;;;4969866;28;20076;-88
2022/05/11 05:02:38;;;;;;;13.15;1.70;;;10.80;99.90;;;;;;4967717;28;20069;-88
2022/05/11 05:05:05;;;;;;;12.02;1.70;;;10.80;99.90;;;;;;4986208;28;20018;-88
2022/05/11 05:07:35;;;;;;;10.15;2.22;;;10.80;99.90;;;;;;4965031;28;20019;-89
2022/05/11 05:10:03;;;;;;;15.55;2.42;;;10.70;99.90;;;;;;4968004;28;20066;-89
2022/05/11 05:12:29;;;;;;;11.95;1.85;;;10.70;99.90;;;;;;4968523;28;20141;-88
2022/05/11 05:14:54;;;;;;;7.45;1.55;;;10.70;99.90;;;;;;4970317;28;20030;-88
2022/05/11 05:17:20;;;;;;;14.95;3.03;;;10.70;99.90;;;;;;4970054;28;20081;-88
2022/05/11 05:19:49;;;;;;;12.63;2.25;;;10.60;99.90;;;;;;4971982;28;20026;-89
2022/05/11 05:22:16;;;;;;;6.63;1.58;;;10.70;99.90;;;;;;4968273;28;20027;-89
2022/05/11 05:24:42;;;;;;;9.65;1.95;;;10.60;99.90;;;;;;4963291;28;20050;-90
2022/05/11 05:27:10;;;;;;;9.95;3.17;;;10.60;99.90;;;;;;4969347;28;20113;-89
2022/05/11 05:32:20;;;;;;;9.77;1.90;;;10.60;99.90;;;;;;4984157;28;20030;-88
2022/05/11 05:34:45;;;;;;;6.95;1.90;;;10.60;99.90;;;;;;4979216;28;20038;-89
2022/05/11 05:37:12;;;;;;;5.88;1.80;;;10.60;99.90;;;;;;4971784;28;20046;-89
2022/05/11 05:39:38;;;;;;;11.35;1.95;;;10.60;99.90;;;;;;4971555;28;20122;-89
2022/05/11 05:42:05;;;;;;;6.85;1.60;;;10.60;99.90;;;;;;4965899;28;20018;-88
2022/05/11 05:44:32;;;;;;;6.10;1.60;;;10.60;99.90;;;;;;4963122;28;20055;-90
2022/05/11 05:47:08;;;;;;;5.28;1.67;;;10.60;99.90;;;;;;4966951;28;20080;-88
2022/05/11 05:49:34;;;;;;;9.35;1.40;;;10.60;99.90;;;;;;4964078;28;20206;-89
2022/05/11 05:52:02;;;;;;;6.50;1.73;;;10.70;99.90;;;;;;4983808;28;20022;-89
2022/05/11 05:54:32;;;;;;;5.65;1.55;;;10.70;99.90;;;;;;4967932;28;20033;-89
2022/05/11 05:57:01;;;;;;;6.80;1.20;;;10.70;99.90;;;;;;4964789;28;20101;-88
2022/05/11 05:59:27;;;;;;;3.90;1.27;;;10.70;99.90;;;;;;4967023;28;20309;-90
2022/05/11 06:01:53;;;;;;;3.72;1.08;;;10.80;99.90;;;;;;4967572;28;20026;-89
2022/05/11 06:04:19;;;;;;;4.28;1.45;;;10.80;99.90;;;;;;4970415;28;20041;-90
2022/05/11 06:06:45;;;;;;;4.72;1.40;;;10.80;99.90;;;;;;4962484;28;20113;-89
2022/05/11 06:09:10;;;;;;;3.05;1.10;;;10.90;99.90;;;;;;4950038;28;20117;-89
2022/05/11 06:11:37;;;;;;;7.88;1.48;;;10.90;99.90;;;;;;4962029;28;20022;-89
2022/05/11 06:14:04;;;;;;;2.17;1.02;;;10.90;99.90;;;;;;4946405;28;20024;-88
2022/05/11 06:16:31;;;;;;;10.40;1.73;;;10.90;99.90;;;;;;4957487;28;20085;-89
2022/05/11 06:18:58;;;;;;;5.32;1.08;;;10.90;99.90;;;;;;4956060;28;20027;-89
2022/05/11 06:21:24;;;;;;;6.35;1.00;;;10.90;99.90;;;;;;4957844;28;20170;-89
2022/05/11 06:23:51;;;;;;;5.22;1.23;;;10.90;99.90;;;;;;4952896;28;20038;-89
2022/05/11 06:26:18;;;;;;;5.75;1.30;;;10.90;99.90;;;;;;4955640;28;20022;-90
2022/05/11 06:28:45;;;;;;;2.67;0.70;;;10.90;99.90;;;;;;4953241;28;20031;-89
2022/05/11 06:31:12;;;;;;;4.57;1.83;;;10.90;99.90;;;;;;4950375;28;20487;-90
2022/05/11 06:33:40;;;;;;;2.28;1.10;;;11.00;99.90;;;;;;4942367;29;20032;-90
2022/05/11 06:36:08;;;;;;;5.28;1.23;;;11.00;99.90;;;;;;4939356;28;20518;-89
2022/05/11 06:38:34;;;;;;;5.32;1.20;;;11.00;99.90;;;;;;4972582;28;20519;-88
2022/05/11 06:41:16;;;;;;;5.03;0.90;;;11.00;99.90;;;;;;4948656;28;20030;-89
2022/05/11 06:43:42;;;;;;;6.78;1.20;;;11.00;99.90;;;;;;4965164;28;20054;-89
2022/05/11 06:46:08;;;;;;;5.82;1.23;;;11.00;99.90;;;;;;4952871;28;20095;-89
2022/05/11 06:48:34;;;;;;;5.55;1.23;;;11.00;99.90;;;;;;4966520;28;20070;-89
2022/05/11 06:50:59;;;;;;;5.50;1.20;;;11.00;99.90;;;;;;4994012;28;20018;-88
2022/05/11 06:53:26;;;;;;;3.83;1.30;;;11.00;99.90;;;;;;4994233;28;20026;-88
2022/05/11 07:01:22;;;;;;;11.05;2.30;;;11.10;99.90;;;;;;4993306;28;20045;-88
2022/05/11 07:03:49;;;;;;;2.55;0.85;;;11.10;99.90;;;;;;4993002;28;20038;-91
2022/05/11 07:06:14;;;;;;;5.38;1.15;;;11.00;99.90;;;;;;4992473;28;20033;-88
2022/05/11 07:08:45;;;;;;;2.67;0.93;;;11.00;99.90;;;;;;4993541;28;20034;-92
2022/05/11 07:13:56;;;;;;;3.30;0.85;;;11.00;99.90;;;;;;4997997;28;20050;-89
2022/05/11 07:16:27;;;;;;;3.65;1.08;;;11.00;99.90;;;;;;4996639;28;20027;-93
2022/05/11 07:18:54;;;;;;;3.17;0.93;;;11.00;99.90;;;;;;4982184;28;20042;-88
2022/05/11 07:21:20;;;;;;;4.38;0.90;;;11.00;99.90;;;;;;4996000;28;20034;-88
2022/05/11 07:23:45;;;;;;;3.22;0.82;;;11.10;99.90;;;;;;4995375;28;20087;-89
2022/05/11 07:26:12;;;;;;;5.72;1.10;;;11.10;99.90;;;;;;4994801;28;20026;-87
2022/05/11 07:28:40;;;;;;;4.10;1.30;;;11.10;99.90;;;;;;4995093;28;20454;-87
2022/05/11 07:31:06;;;;;;;7.60;1.58;;;11.20;99.90;;;;;;4994902;28;20077;-87
2022/05/11 07:33:32;;;;;;;2.08;1.02;;;11.20;99.90;;;;;;4995446;28;20030;-89
2022/05/11 07:35:57;;;;;;;3.45;1.58;;;11.20;99.90;;;;;;4995460;28;20030;-88
2022/05/11 07:38:23;;;;;;;3.15;1.27;;;11.20;99.90;;;;;;4997384;28;20117;-89
2022/05/11 07:40:49;;;;;;;2.70;1.00;;;11.20;99.90;;;;;;4997655;28;20033;-88
2022/05/11 07:43:14;;;;;;;4.43;1.00;;;11.20;99.90;;;;;;4995478;28;20480;-89
2022/05/11 07:45:43;;;;;;;3.30;1.23;;;11.20;99.90;;;;;;4995455;28;20117;-88
2022/05/11 07:48:09;;;;;;;3.20;1.00;;;11.20;99.90;;;;;;4995523;28;20081;-90
2022/05/11 07:50:35;;;;;;;5.38;1.20;;;11.20;99.90;;;;;;4992239;28;20038;-88
2022/05/11 07:53:01;;;;;;;4.80;1.30;;;11.20;99.90;;;;;;4982913;28;20037;-88
2022/05/11 07:55:28;;;;;;;3.55;1.10;;;11.20;99.90;;;;;;5000395;28;20064;-91
2022/05/11 08:00:40;;;;;;;3.97;0.75;;;11.30;99.90;;;;;;5018011;28;20091;-90
2022/05/11 08:03:09;;;;;;;1.88;1.00;;;11.40;99.90;;;;;;5000240;28;20046;-91
2022/05/11 08:05:35;;;;;;;2.80;0.85;;;11.40;99.90;;;;;;5000729;28;20040;-89
2022/05/11 08:08:05;;;;;;;2.10;0.82;;;11.50;99.90;;;;;;4997016;28;20022;-88
2022/05/11 08:10:35;;;;;;;1.95;0.55;;;11.40;99.90;;;;;;4996742;28;20026;-88
2022/05/11 08:13:05;;;;;;;2.57;0.70;;;11.40;99.90;;;;;;5002630;28;20014;-90
2022/05/11 08:15:32;;;;;;;2.23;0.73;;;11.50;99.90;;;;;;5002958;28;20026;-89
2022/05/11 08:17:58;;;;;;;2.50;0.60;;;11.50;99.90;;;;;;5009363;28;20110;-91
2022/05/11 08:20:30;;;;;;;2.40;0.80;;;11.40;99.90;;;;;;5018249;28;20046;-91
2022/05/11 08:22:57;;;;;;;1.95;0.70;;;11.50;99.90;;;;;;5016907;28;20070;-92
2022/05/11 08:25:27;;;;;;;1.92;0.63;;;11.60;99.90;;;;;;5003070;28;20058;-91
2022/05/11 08:27:53;;;;;;;3.25;0.80;;;11.60;99.90;;;;;;4999051;28;20077;-90
2022/05/11 08:33:26;;;;;;;3.15;0.82;;;11.80;99.90;;;;;;4999107;28;20053;-91
2022/05/11 08:36:13;;;;;;;1.58;1.00;;;11.80;99.90;;;;;;4998842;28;20464;-90
2022/05/11 08:38:43;;;;;;;3.97;0.82;;;11.70;99.90;;;;;;4996239;28;20041;-90
2022/05/11 08:41:32;;;;;;;4.53;0.90;;;11.80;99.90;;;;;;4996325;28;20033;-91
2022/05/11 08:44:05;;;;;;;8.50;1.30;;;11.80;99.90;;;;;;4995911;28;20053;-90
2022/05/11 08:46:45;;;;;;;2.20;0.77;;;11.80;99.90;;;;;;4995740;28;20042;-89
2022/05/11 08:49:35;;;;;;;2.72;0.95;;;11.80;99.90;;;;;;4996272;28;20050;-90
2022/05/11 08:52:04;;;;;;;3.00;1.02;;;11.90;99.90;;;;;;4986543;28;20023;-90
2022/05/11 08:54:44;;;;;;;2.85;0.75;;;11.90;99.90;;;;;;4970778;28;20114;-90
2022/05/11 08:57:17;;;;;;;1.40;0.73;;;12.00;99.90;;;;;;4958308;29;20058;-91
2022/05/11 08:59:44;;;;;;;1.63;0.70;;;12.10;99.90;;;;;;4957800;29;20051;-90
2022/05/11 09:02:27;;;;;;;2.50;0.93;;;12.10;99.90;;;;;;4959907;29;20050;-90
2022/05/11 09:04:56;;;;;;;2.63;0.50;;;12.10;99.90;;;;;;4960554;29;20055;-90
2022/05/11 09:07:22;;;;;;;1.80;0.40;;;12.10;99.90;;;;;;4957626;29;20027;-90
2022/05/11 09:09:52;;;;;;;0.30;0.30;;;12.10;99.90;;;;;;4957288;28;20093;-90
2022/05/11 09:12:19;;;;;;;2.58;0.30;;;12.10;99.90;;;;;;4956665;29;20081;-90
2022/05/11 09:14:51;;;;;;;2.50;0.52;;;12.10;99.90;;;;;;4956965;29;20492;-91
2022/05/11 09:17:20;;;;;;;1.65;0.30;;;12.10;99.90;;;;;;4957131;29;20027;-92
2022/05/11 09:19:46;;;;;;;1.65;0.17;;;12.10;99.90;;;;;;4957306;29;20118;-90
2022/05/11 09:22:23;;;;;;;1.75;0.68;;;12.10;99.90;;;;;;4958112;29;20106;-90
2022/05/11 09:24:51;;;;;;;0.85;0.43;;;12.10;99.90;;;;;;4958879;29;20043;-90
2022/05/11 09:27:35;;;;;;;2.25;0.40;;;12.10;99.90;;;;;;4957463;29;20046;-89
2022/05/11 09:30:23;;;;;;;1.58;0.40;;;12.10;99.90;;;;;;4957694;29;20027;-90
2022/05/11 09:32:53;;;;;;;1.45;0.40;;;12.10;99.90;;;;;;4961843;28;20406;-89
2022/05/11 09:35:34;;;;;;;0.22;0.22;;;12.10;99.90;;;;;;4959343;29;20418;-91
2022/05/11 09:38:03;;;;;;;0.55;0.35;;;12.10;99.90;;;;;;4962905;29;20031;-90
2022/05/11 09:40:30;;;;;;;2.22;0.20;;;12.00;99.90;;;;;;4967115;29;20031;-90
2022/05/11 09:43:02;;;;;;;0.65;0.10;;;11.90;99.90;;;;;;4965365;28;20031;-90
2022/05/11 09:45:34;;;;;;;1.70;0.40;;;11.90;99.90;;;;;;4948794;29;20031;-90
2022/05/11 09:48:07;;;;;;;0.93;0.40;;;11.80;99.90;;;;;;4958395;28;20065;-90
2022/05/11 09:50:33;;;;;;;1.58;0.17;;;11.80;99.90;;;;;;4974999;28;20033;-89
2022/05/11 09:53:18;;;;;;;1.25;0.30;;;11.80;99.90;;;;;;4974148;28;20042;-90
2022/05/11 09:55:44;;;;;;;0.40;0.25;;;11.80;99.90;;;;;;4993771;28;20031;-89
2022/05/11 09:58:10;;;;;;;1.73;0.60;;;11.90;99.90;;;;;;4996436;28;20031;-89
2022/05/11 10:00:42;;;;;;;1.42;0.40;;;11.90;99.90;;;;;;4999121;28;20037;-91
2022/05/11 10:03:14;;;;;;;0.73;0.30;;;12.00;99.90;;;;;;4995812;28;20482;-90
2022/05/11 10:05:44;;;;;;;1.65;0.75;;;12.00;99.90;;;;;;4995679;28;20034;-90
2022/05/11 10:08:28;;;;;;;1.77;0.47;;;12.10;99.90;;;;;;4995775;28;20023;-90
2022/05/11 10:11:08;;;;;;;1.90;0.32;;;12.10;99.90;;;;;;4995100;28;20041;-91
2022/05/11 10:13:52;;;;;;;1.88;0.45;;;12.10;99.90;;;;;;4994795;28;20019;-91
2022/05/11 10:22:29;;;;;;;0.40;0.20;;;12.20;99.90;;;;;;4995533;28;20034;-90
2022/05/11 10:25:03;;;;;;;0.30;0.28;;;12.20;99.90;;;;;;4994438;28;20034;-90
2022/05/11 10:27:54;;;;;;;2.03;1.42;;;12.20;99.90;;;;;;4993955;28;20034;-89
2022/05/11 10:30:32;;;;;;;0.38;0.25;;;12.30;99.90;;;;;;4993912;28;20030;-90
2022/05/11 10:33:20;;;;;;;0.60;0.20;;;12.40;99.90;;;;;;4975470;28;20074;-91
2022/05/11 10:35:50;;;;;;;1.65;0.30;;;12.40;99.90;;;;;;4985167;28;20023;-89
2022/05/11 10:38:32;;;;;;;0.55;0.40;;;12.50;99.90;;;;;;4993352;28;20024;-90
2022/05/11 10:41:03;;;;;;;1.73;0.28;;;12.60;99.90;;;;;;4994471;28;20037;-89
2022/05/11 10:43:35;;;;;;;0.20;0.10;;;12.60;99.90;;;;;;4993415;28;20042;-89
2022/05/11 10:46:11;;;;;;;0.20;0.20;;;12.70;99.90;;;;;;4996776;28;20026;-91
2022/05/11 10:49:12;;;;;;;0.80;0.40;;;12.80;99.90;;;;;;4997178;28;20145;-89
2022/05/11 10:51:50;;;;;;;0.63;0.30;;;12.80;99.90;;;;;;4996636;28;20099;-90
2022/05/11 10:54:46;;;;;;;2.72;0.60;;;12.80;99.90;;;;;;4991061;28;20027;-90
2022/05/11 10:57:24;;;;;;;3.78;0.50;;;12.80;99.90;;;;;;4989979;28;20061;-90
2022/05/11 11:00:09;;;;;;;0.85;0.50;;;12.90;99.90;;;;;;4977929;28;20043;-91
2022/05/11 11:03:05;;;;;;;1.05;0.47;;;12.90;99.90;;;;;;4976108;28;20063;-90
2022/05/11 11:07:10;;;;;;;0.40;0.40;;;12.90;99.90;;;;;;4978148;28;20041;-90
2022/05/11 11:08:42;;;;;;;0.73;0.17;;;12.80;99.90;;;;;;4980806;28;20074;-90
2022/05/11 11:11:30;;;;;;;1.13;0.30;;;12.80;99.90;;;;;;4961607;28;20037;-90
2022/05/11 11:14:03;;;;;;;0.13;0.10;;;12.80;99.90;;;;;;4962817;28;20062;-91
2022/05/11 11:16:35;;;;;;;0.77;0.30;;;12.90;99.90;;;;;;4962282;28;20495;-90
2022/05/11 11:19:03;;;;;;;0.70;0.38;;;12.90;99.90;;;;;;4979584;28;20057;-90
2022/05/11 11:21:30;;;;;;;1.42;0.32;;;13.00;99.90;;;;;;4962133;28;20492;-91
2022/05/11 11:24:17;;;;;;;0.38;0.30;;;13.00;99.90;;;;;;4965928;28;20326;-90
2022/05/11 11:26:58;;;;;;;1.30;0.32;;;13.00;99.90;;;;;;4962225;28;20023;-89
2022/05/11 11:29:26;;;;;;;2.50;0.50;;;13.00;99.90;;;;;;4962425;28;20043;-90
2022/05/11 11:31:58;;;;;;;0.40;0.40;;;13.00;99.90;;;;;;4962709;28;20031;-91
2022/05/11 11:34:32;;;;;;;0.60;0.40;;;13.00;99.90;;;;;;4966904;28;20039;-92
2022/05/11 11:37:24;;;;;;;1.27;0.40;;;13.00;99.90;;;;;;4970889;28;20041;-91
2022/05/11 11:39:54;;;;;;;0.80;0.60;;;13.00;99.90;;;;;;4966065;28;20035;-92
2022/05/11 11:42:35;;;;;;;1.38;0.82;;;13.00;99.90;;;;;;4966903;28;20105;-91
2022/05/11 11:45:03;;;;;;;1.83;0.55;;;13.10;99.90;;;;;;4971826;28;20034;-90
2022/05/11 11:47:30;;;;;;;2.80;0.30;;;13.10;99.90;;;;;;4965490;28;20027;-92
2022/05/11 11:49:58;;;;;;;0.93;0.40;;;13.00;99.90;;;;;;5008443;28;20296;-91
2022/05/11 11:52:40;;;;;;;0.52;0.32;;;12.90;99.90;;;;;;5004553;28;20037;-91
2022/05/11 11:55:18;;;;;;;1.38;0.52;;;12.80;99.90;;;;;;5001321;28;20030;-93
2022/05/11 11:57:46;;;;;;;1.02;0.43;;;12.80;99.90;;;;;;5001828;28;20045;-91
2022/05/11 12:00:21;;;;;;;1.48;0.60;;;12.80;99.90;;;;;;5000685;28;20486;-92
2022/05/11 12:02:47;;;;;;;3.17;0.30;;;12.80;99.90;;;;;;5000331;28;20121;-91
2022/05/11 12:05:32;;;;;;;0.30;0.25;;;12.80;99.90;;;;;;5000459;28;20073;-91
2022/05/11 12:16:57;;;;;;;1.60;0.50;;;12.90;99.90;;;;;;5024586;28;20048;-92
2022/05/11 12:19:26;;;;;;;3.28;1.15;;;13.00;99.90;;;;;;5001458;28;20022;-90
2022/05/11 12:22:14;;;;;;;3.17;0.70;;;13.10;99.90;;;;;;5001578;28;20033;-93
2022/05/11 12:25:04;;;;;;;2.05;0.60;;;13.20;99.90;;;;;;5004326;28;20042;-91
2022/05/11 12:27:36;;;;;;;1.25;0.60;;;13.20;99.90;;;;;;4939465;29;20062;-92
2022/05/11 12:30:06;;;;;;;2.40;0.90;;;13.30;99.90;;;;;;4947571;29;20035;-92
2022/05/11 12:32:35;;;;;;;2.55;0.70;;;13.40;99.90;;;;;;4950624;29;20055;-92
2022/05/11 12:35:13;;;;;;;1.65;1.00;;;13.40;99.90;;;;;;4945296;29;20032;-92
2022/05/11 12:37:39;;;;;;;4.40;0.77;;;13.50;99.90;;;;;;4960234;29;20035;-91
2022/05/11 12:40:13;;;;;;;2.03;0.60;;;13.60;99.90;;;;;;4951500;29;20035;-94
2022/05/11 12:42:54;;;;;;;2.38;0.88;;;13.80;99.90;;;;;;4948569;29;20033;-92
2022/05/11 12:45:34;;;;;;;1.40;0.80;;;13.90;99.90;;;;;;4960898;29;20046;-92
2022/05/11 12:48:00;;;;;;;2.17;0.70;;;14.00;99.90;;;;;;4978615;28;20175;-93
2022/05/11 12:50:38;;;;;;;0.75;0.60;;;14.20;99.90;;;;;;4957163;29;20039;-93
2022/05/11 12:53:15;;;;;;;1.17;0.68;;;14.20;99.90;;;;;;4947714;29;20086;-90
2022/05/11 12:55:42;;;;;;;4.47;1.10;;;14.30;99.90;;;;;;4948727;29;20496;-93
2022/05/11 12:58:07;;;;;;;1.83;0.73;;;14.30;99.90;;;;;;4962371;29;20043;-92
2022/05/11 13:00:35;;;;;;;0.98;0.60;;;14.30;99.90;;;;;;4948679;29;20024;-93
2022/05/11 13:03:29;;;;;;;4.40;0.85;;;14.50;99.90;;;;;;4942706;29;20038;-92
2022/05/11 13:06:02;;;;;;;5.15;1.25;;;14.60;99.90;;;;;;5017500;28;20545;-93
2022/05/11 13:08:38;;;;;;;3.95;1.50;;;14.70;99.90;;;;;;5023754;28;20049;-92
2022/05/11 13:11:06;;;;;;;6.57;1.00;;;14.70;99.90;;;;;;5016901;28;20041;-92
2022/05/11 13:13:34;;;;;;;3.10;1.25;;;14.80;99.90;;;;;;5015840;28;20037;-93
2022/05/11 13:16:24;;;;;;;2.45;1.08;;;14.90;99.90;;;;;;5012528;28;20034;-93
2022/05/11 13:19:01;;;;;;;3.60;0.90;;;15.20;99.90;;;;;;5004509;28;20017;-91
2022/05/11 13:21:35;;;;;;;2.33;0.80;;;15.50;99.90;;;;;;5003305;28;20037;-93
2022/05/11 13:24:01;;;;;;;4.40;1.02;;;15.60;99.90;;;;;;5005951;28;20030;-90
2022/05/11 13:26:42;;;;;;;6.32;1.00;;;15.70;99.90;;;;;;5013988;28;20054;-93
2022/05/11 13:29:26;;;;;;;2.80;0.80;;;15.90;99.90;;;;;;5005975;28;20022;-93
2022/05/11 13:32:11;;;;;;;3.65;1.10;;;16.30;99.80;;;;;;5011198;28;20056;-92
2022/05/11 13:34:42;;;;;;;3.15;0.70;;;16.70;99.20;;;;;;5004065;28;20123;-91
2022/05/11 13:37:27;;;;;;;;;;;17.20;98.50;;;;;;5022130;28;20030;-94
2022/05/11 13:39:54;;;;;;;6.25;1.30;;;17.50;96.60;;;;;;5016500;28;19932;-93
2022/05/11 13:42:23;;;;;;;4.00;0.90;;;17.60;94.20;;;;;;5017935;28;20034;-93
2022/05/11 13:44:52;;;;;;;5.47;1.08;;;17.70;93.20;;;;;;5011034;28;20022;-91
2022/05/11 13:50:25;;;;;;;3.08;1.00;;;17.70;90.70;;;;;;5022696;28;20040;-92